メインページ
METAR-TAF:

METAR-TAF

空港 :

秋田空港

秋田, 日本

緯度: 39-37N, 経度: 140-13E, 海抜: 93m

現時点の気象観測

当レポートは33分前の08:00(UTC)に作成
東/南東の風 2kt
気温 1°C
湿度 93%
気圧 1019 hPa
視程10km以上
高度500ftの雲はほとんどない
高度1500ftの雲は散在している
高度2000ftの千切れ雲あり
近辺でにわか雨

METAR: RJSK 130800Z 11002KT 9999 VCSH FEW005 SCT015 BKN020 01/00 Q1019

時間: 17:33 (08:33 UTC)

予報

当レポートは3時間26分前の05:07(UTC)に作成
予報は13日の 06時(UTC)から 14日の 12時(UTC)まで有効
北/北西の風 5kt
視程: 6000m
高度500ftの雲はほとんどない
高度1500ftの千切れ雲あり
高度2000ftの千切れ雲あり
弱いにわか雪
13日の 10時(UTC)から 13日の 12時(UTC)まで徐々に
東/南東の風 5kt
視程: 1500m
高度500ftの雲はほとんどない
高度800ftの千切れ雲あり
高度1500ftの千切れ雲あり
小雪
13日の 12時(UTC)から 13日の 21時(UTC)まで一時的に
視程: 0700m
高度200ftの雲はほとんどない
高度500ftの千切れ雲あり
高度800ftの千切れ雲あり
13日の 21時(UTC)から 14日の 00時(UTC)まで徐々に
北西の風 13kt
視程: 6000m
高度500ftの雲はほとんどない
高度1500ftの千切れ雲あり
高度2000ftの千切れ雲あり
弱いにわか雪
14日の 00時(UTC)から 14日の 12時(UTC)まで一時的に
北西の風 15kt、最大25ktの突風を伴う
視程: 1500m
高度500ftの雲はほとんどない
高度800ftの千切れ雲あり
高度1500ftの千切れ雲あり
弱いにわか雪

TAF: RJSK 130507Z 1306/1412 34005KT 6000 -SHSN FEW005 BKN015 BKN020 BECMG 1310/1312 12005KT 1500 -SN FEW005 BKN008 BKN015 TEMPO 1312/1321 0700 SN FEW002 BKN005 BKN008 BECMG 1321/1400 32013KT 6000 -SHSN FEW005 BKN015 BKN020 TEMPO 1400/1412 32015G25KT 1500 -SHSN FEW005 BKN008 BKN015

4,000以上の空港の気象観測と天気予報(METAR報とTAF報)

利用可能な観測所は地図上に黄色い丸と赤い丸で示す。

丸の上にカーソルを重ねると観測所名を参照できる。

次にクリックすると気象観測と天気予報を参照できる。

マップの切り替え:黒色「×」印の緑ボタンをクリックして拡大、「-」印の緑ボタンをクリックして縮小、緑色の三角印をクリックして隣りの地図に切り替え


METAR-TAF: